This is the latest recevied weather packets stored in our database for station/object N7MLR. If no packets are shown the sender has not sent any weather packets the latest 1 day(s).
| Time | Temp. | Humidity | Pressure | Rain* | Wind** | Luminosity | Snow |
|---|---|---|---|---|---|---|---|
| 1778029233 | 27.22° C | 77% | 1006.1 hPa | 0 mm | - | 6 W/m² | - |
| 1778028930 | 27.78° C | 76% | 1006.1 hPa | 0 mm | - | 11 W/m² | - |
| 1778028626 | 26.67° C | 78% | 1006.1 hPa | 0 mm | - | 16 W/m² | - |
| 1778028020 | 27.22° C | 78% | 1005.9 hPa | 0 mm | - | 27 W/m² | - |
| 1778027109 | 27.78° C | 76% | 1005.9 hPa | 0 mm | - | 32 W/m² | - |
| 1778024685 | 29.44° C | 69% | 1006 hPa | 0 mm | - | 62 W/m² | - |
| 1778022264 | 28.89° C | 70% | 1006 hPa | 0 mm | - | 103 W/m² | - |
| 1778021960 | 28.89° C | 69% | 1005.9 hPa | 0 mm | - | 108 W/m² | - |
| 1778020140 | 30° C | 68% | 1005.5 hPa | 0 mm | - | 150 W/m² | - |
| 1778019533 | 29.44° C | 68% | 1005.8 hPa | 0 mm | - | 187 W/m² | - |
| 1778019230 | 29.44° C | 68% | 1005.6 hPa | 0 mm | - | 234 W/m² | - |
| 1778018322 | 28.89° C | 70% | 1005.8 hPa | 0 mm | - | 311 W/m² | - |
| 1778018020 | 28.89° C | 70% | 1005.6 hPa | 0 mm | - | 185 W/m² | - |
| 1778017415 | 28.89° C | 70% | 1005.9 hPa | 0 mm | - | 298 W/m² | - |
| 1778016810 | 29.44° C | 69% | 1006.1 hPa | 0 mm | - | 337 W/m² | - |
| 1778015293 | 30° C | 67% | 1006.2 hPa | 0 mm | - | 364 W/m² | - |
| 1778012869 | 28.89° C | 71% | 1006.9 hPa | 0 mm | - | 516 W/m² | - |
| 1778012262 | 28.33° C | 71% | 1007.2 hPa | 0 mm | - | 673 W/m² | - |
| 1778011658 | 28.33° C | 73% | 1007.3 hPa | 0 mm | - | 302 W/m² | - |
| 1778011355 | 28.33° C | 71% | 1007.3 hPa | 0 mm | - | 275 W/m² | - |
* Rain latest hour (hover to see other rain measurements)
** Current wind speed in m/s (hover to see current wind gust speed)